createdAt,value
2018-08-22T00:01:48.119Z,99606.00
2018-08-22T00:04:17.957Z,99599.00
2018-08-22T00:06:47.794Z,99600.00
2018-08-22T00:09:17.638Z,99600.00
2018-08-22T00:11:47.474Z,99601.00
2018-08-22T00:14:17.326Z,99601.00
2018-08-22T00:16:47.175Z,99601.00
2018-08-22T00:19:17.018Z,99600.00
2018-08-22T00:21:46.865Z,99593.00
2018-08-22T00:24:16.718Z,99590.00
2018-08-22T00:26:46.555Z,99595.00
2018-08-22T00:29:16.400Z,99589.00
2018-08-22T00:31:46.214Z,99590.00
2018-08-22T00:34:16.059Z,99590.00
2018-08-22T00:36:46.165Z,99587.00
2018-08-22T00:39:16.010Z,99588.00
2018-08-22T00:41:45.887Z,99586.00
2018-08-22T00:44:15.736Z,99585.00
2018-08-22T00:46:45.566Z,99583.00
2018-08-22T00:49:15.428Z,99578.00
2018-08-22T00:51:50.594Z,99578.00
2018-08-22T00:54:20.466Z,99575.00
2018-08-22T00:56:50.303Z,99571.00
2018-08-22T00:59:20.160Z,99570.00
2018-08-22T01:01:50.029Z,99571.00
2018-08-22T01:04:19.862Z,99568.00
2018-08-22T01:06:49.698Z,99569.00
2018-08-22T01:09:19.553Z,99568.00
2018-08-22T01:11:49.400Z,99564.00
2018-08-22T01:14:19.230Z,99567.00
2018-08-22T01:16:49.061Z,99563.00
2018-08-22T01:19:18.903Z,99561.00
2018-08-22T01:21:48.737Z,99559.00
2018-08-22T01:24:18.691Z,99561.00
2018-08-22T01:26:48.530Z,99558.00
2018-08-22T01:29:19.002Z,99559.00
2018-08-22T01:31:48.849Z,99555.00
2018-08-22T01:34:18.762Z,99555.00
2018-08-22T01:36:48.593Z,99552.00
2018-08-22T01:39:18.430Z,99551.00
2018-08-22T01:41:48.262Z,99556.00
2018-08-22T01:44:18.108Z,99556.00
2018-08-22T01:46:47.942Z,99556.00
2018-08-22T01:49:17.786Z,99556.00
2018-08-22T01:51:47.631Z,99555.00
2018-08-22T01:54:17.474Z,99554.00
2018-08-22T01:56:47.306Z,99551.00
2018-08-22T01:59:17.158Z,99557.00
2018-08-22T02:01:47.003Z,99549.00
2018-08-22T02:04:16.854Z,99546.00
2018-08-22T02:06:46.697Z,99544.00
2018-08-22T02:09:16.585Z,99544.00
2018-08-22T02:11:46.462Z,99545.00
2018-08-22T02:14:16.309Z,99550.00
2018-08-22T02:16:46.152Z,99550.00
2018-08-22T02:19:16.047Z,99553.00
2018-08-22T02:21:45.878Z,99552.00
2018-08-22T02:24:15.726Z,99555.00
2018-08-22T02:26:45.558Z,99552.00
2018-08-22T02:29:15.412Z,99553.00
2018-08-22T02:31:45.252Z,99549.00
2018-08-22T02:34:15.126Z,99551.00
2018-08-22T02:36:44.967Z,99549.00
2018-08-22T02:39:14.846Z,99552.00
2018-08-22T02:41:44.695Z,99550.00
2018-08-22T02:44:14.561Z,99550.00
2018-08-22T02:46:44.395Z,99551.00
2018-08-22T02:49:15.241Z,99547.00
2018-08-22T02:51:45.077Z,99546.00
2018-08-22T02:54:14.939Z,99546.00
2018-08-22T02:56:44.818Z,99550.00
2018-08-22T02:59:14.703Z,99550.00
2018-08-22T03:01:44.579Z,99548.00
2018-08-22T03:04:14.421Z,99547.00
2018-08-22T03:06:44.286Z,99549.00
2018-08-22T03:09:15.030Z,99553.00
2018-08-22T03:11:44.871Z,99552.00
2018-08-22T03:14:17.701Z,99554.00
2018-08-22T03:16:47.701Z,99548.00
2018-08-22T03:19:17.584Z,99556.00
2018-08-22T03:21:47.428Z,99552.00
2018-08-22T03:24:17.282Z,99552.00
2018-08-22T03:26:47.121Z,99551.00
2018-08-22T03:29:16.966Z,99549.00
2018-08-22T03:31:46.811Z,99546.00
2018-08-22T03:34:16.649Z,99545.00
2018-08-22T03:36:46.491Z,99543.00
2018-08-22T03:39:16.334Z,99540.00
2018-08-22T03:41:46.169Z,99539.00
2018-08-22T03:44:16.010Z,99541.00
2018-08-22T03:46:45.850Z,99538.00
2018-08-22T03:49:15.695Z,99540.00
2018-08-22T03:51:45.526Z,99538.00
2018-08-22T03:54:15.375Z,99539.00
2018-08-22T03:56:51.499Z,99541.00
2018-08-22T03:59:21.343Z,99539.00
2018-08-22T04:01:51.178Z,99540.00
2018-08-22T04:04:21.035Z,99545.00
2018-08-22T04:06:50.874Z,99542.00
2018-08-22T04:09:20.731Z,99547.00
2018-08-22T04:11:50.570Z,99547.00
2018-08-22T04:14:20.410Z,99545.00
2018-08-22T04:16:50.276Z,99547.00
2018-08-22T04:19:20.126Z,99550.00
2018-08-22T04:21:49.978Z,99550.00
2018-08-22T04:24:19.870Z,99547.00
2018-08-22T04:26:49.707Z,99552.00
2018-08-22T04:29:19.718Z,99547.00
2018-08-22T04:31:49.583Z,99550.00
2018-08-22T04:34:19.415Z,99549.00
2018-08-22T04:36:49.366Z,99550.00
2018-08-22T04:39:19.256Z,99547.00
2018-08-22T04:41:49.111Z,99543.00
2018-08-22T04:44:18.943Z,99547.00
2018-08-22T04:46:48.833Z,99549.00
2018-08-22T04:49:18.671Z,99550.00
2018-08-22T04:51:48.790Z,99549.00
2018-08-22T04:54:18.625Z,99550.00
2018-08-22T04:56:48.486Z,99552.00
2018-08-22T04:59:18.319Z,99551.00
2018-08-22T05:01:48.226Z,99552.00
2018-08-22T05:04:18.065Z,99556.00
2018-08-22T05:06:47.915Z,99556.00
2018-08-22T05:09:17.751Z,99556.00
2018-08-22T05:11:47.670Z,99556.00
2018-08-22T05:14:17.493Z,99557.00
2018-08-22T05:16:47.425Z,99558.00
2018-08-22T05:19:17.254Z,99559.00
2018-08-22T05:21:47.138Z,99554.00
2018-08-22T05:24:16.970Z,99555.00
2018-08-22T05:26:46.816Z,99556.00
2018-08-22T05:29:16.651Z,99558.00
2018-08-22T05:31:46.503Z,99556.00
2018-08-22T05:34:16.347Z,99552.00
2018-08-22T05:36:46.185Z,99554.00
2018-08-22T05:39:16.021Z,99557.00
2018-08-22T05:41:45.879Z,99562.00
2018-08-22T05:44:15.711Z,99558.00
2018-08-22T05:46:45.618Z,99558.00
2018-08-22T05:49:15.546Z,99562.00
2018-08-22T05:51:45.346Z,99560.00
2018-08-22T05:54:15.183Z,99564.00
2018-08-22T05:56:45.054Z,99557.00
2018-08-22T05:59:14.962Z,99558.00
2018-08-22T06:01:44.826Z,99562.00
2018-08-22T06:04:14.726Z,99562.00
2018-08-22T06:06:44.574Z,99566.00
2018-08-22T06:09:14.487Z,99563.00
2018-08-22T06:11:44.760Z,99561.00
2018-08-22T06:14:14.598Z,99562.00
2018-08-22T06:16:44.742Z,99565.00
2018-08-22T06:19:14.629Z,99564.00
2018-08-22T06:21:44.504Z,99566.00
2018-08-22T06:24:14.429Z,99558.00
2018-08-22T06:26:44.287Z,99560.00
2018-08-22T06:29:14.175Z,99561.00
2018-08-22T06:31:44.023Z,99556.00
2018-08-22T06:34:13.874Z,99561.00
2018-08-22T06:36:43.722Z,99563.00
2018-08-22T06:39:13.598Z,99561.00
2018-08-22T06:41:43.460Z,99562.00
2018-08-22T06:44:13.360Z,99560.00
2018-08-22T06:46:49.538Z,99564.00
2018-08-22T06:49:19.430Z,99565.00
2018-08-22T06:51:49.314Z,99559.00
2018-08-22T06:54:19.162Z,99560.00
2018-08-22T06:56:49.001Z,99555.00
2018-08-22T06:59:18.861Z,99555.00
2018-08-22T07:01:48.762Z,99548.00
2018-08-22T07:04:18.683Z,99548.00
2018-08-22T07:06:48.530Z,99545.00
2018-08-22T07:09:18.391Z,99545.00
2018-08-22T07:11:48.252Z,99542.00
2018-08-22T07:14:18.098Z,99540.00
2018-08-22T07:16:47.958Z,99549.00
2018-08-22T07:19:17.809Z,99548.00
2018-08-22T07:21:47.672Z,99547.00
2018-08-22T07:24:17.523Z,99543.00
2018-08-22T07:26:47.414Z,99552.00
2018-08-22T07:29:17.268Z,99549.00
2018-08-22T07:31:47.135Z,99552.00
2018-08-22T07:34:16.959Z,99556.00
2018-08-22T07:36:46.866Z,99552.00
2018-08-22T07:39:16.719Z,99553.00
2018-08-22T07:41:46.642Z,99554.00
2018-08-22T07:44:16.479Z,99554.00
2018-08-22T07:46:46.322Z,99552.00
2018-08-22T07:49:16.179Z,99550.00
2018-08-22T07:51:46.038Z,99550.00
2018-08-22T07:54:15.873Z,99550.00
2018-08-22T07:56:45.784Z,99546.00
2018-08-22T07:59:21.239Z,99549.00
2018-08-22T08:01:51.255Z,99546.00
2018-08-22T08:04:21.025Z,99546.00
2018-08-22T08:06:50.930Z,99547.00
2018-08-22T08:09:20.729Z,99548.00
2018-08-22T08:11:51.024Z,99550.00
2018-08-22T08:14:27.588Z,99548.00
2018-08-22T08:16:57.444Z,99543.00
2018-08-22T08:19:27.283Z,99542.00
2018-08-22T08:21:57.170Z,99542.00
2018-08-22T08:24:27.009Z,99543.00
2018-08-22T08:26:56.866Z,99541.00
2018-08-22T08:29:26.818Z,99542.00
2018-08-22T08:31:56.665Z,99542.00
2018-08-22T08:34:26.509Z,99542.00
2018-08-22T08:36:56.346Z,99542.00
2018-08-22T08:39:26.195Z,99539.00
2018-08-22T08:41:56.076Z,99541.00
2018-08-22T08:44:25.927Z,99533.00
2018-08-22T08:46:55.771Z,99534.00
2018-08-22T08:49:25.659Z,99533.00
2018-08-22T08:51:59.800Z,99530.00
2018-08-22T08:54:30.071Z,99529.00
2018-08-22T08:56:59.903Z,99530.00
2018-08-22T08:59:29.835Z,99522.00
2018-08-22T09:01:59.741Z,99521.00
2018-08-22T09:04:29.656Z,99519.00
2018-08-22T09:06:59.544Z,99518.00
2018-08-22T09:09:29.418Z,99518.00
2018-08-22T09:12:00.379Z,99517.00
2018-08-22T09:14:30.525Z,99515.00
2018-08-22T09:17:00.476Z,99517.00
2018-08-22T09:19:30.351Z,99519.00
2018-08-22T09:22:00.195Z,99514.00
2018-08-22T09:24:30.059Z,99513.00
2018-08-22T09:26:59.926Z,99514.00
2018-08-22T09:29:29.815Z,99515.00
2018-08-22T09:31:59.626Z,99515.00
2018-08-22T09:34:29.486Z,99513.00
2018-08-22T09:36:59.376Z,99510.00
2018-08-22T09:39:29.292Z,99507.00
2018-08-22T09:41:59.094Z,99508.00
2018-08-22T09:44:28.954Z,99505.00
2018-08-22T09:46:58.799Z,99505.00
2018-08-22T09:49:28.722Z,99504.00
2018-08-22T09:51:58.571Z,99497.00
2018-08-22T09:54:28.489Z,99498.00
2018-08-22T09:56:58.307Z,99501.00
2018-08-22T09:59:34.486Z,99496.00
2018-08-22T10:02:04.367Z,99499.00
2018-08-22T10:04:34.210Z,99492.00
2018-08-22T10:07:04.119Z,99488.00
2018-08-22T10:09:33.942Z,99492.00
2018-08-22T10:12:03.826Z,99491.00
2018-08-22T10:14:33.666Z,99484.00
2018-08-22T10:17:03.590Z,99479.00
2018-08-22T10:19:33.558Z,99479.00
2018-08-22T10:22:03.391Z,99477.00
2018-08-22T10:24:33.270Z,99474.00
2018-08-22T10:27:03.189Z,99470.00
2018-08-22T10:29:33.013Z,99465.00
2018-08-22T10:32:02.932Z,99464.00
2018-08-22T10:34:33.144Z,99461.00
2018-08-22T10:37:03.021Z,99454.00
2018-08-22T10:39:33.763Z,99456.00
2018-08-22T10:42:03.551Z,99454.00
2018-08-22T10:44:33.478Z,99453.00
2018-08-22T10:47:03.274Z,99449.00
2018-08-22T10:49:33.113Z,99449.00
2018-08-22T10:52:02.968Z,99450.00
2018-08-22T10:54:32.810Z,99450.00
2018-08-22T10:57:02.715Z,99446.00
2018-08-22T10:59:32.578Z,99437.00
2018-08-22T11:02:02.487Z,99445.00
2018-08-22T11:04:32.268Z,99437.00
2018-08-22T11:07:02.113Z,99438.00
2018-08-22T11:09:31.963Z,99435.00
2018-08-22T11:12:01.798Z,99437.00
2018-08-22T11:14:31.735Z,99435.00
2018-08-22T11:17:01.584Z,99436.00
2018-08-22T11:19:31.437Z,99435.00
2018-08-22T11:22:18.443Z,99438.00
2018-08-22T11:25:05.501Z,99435.00
2018-08-22T11:27:52.408Z,99429.00
2018-08-22T11:30:39.430Z,99427.00
2018-08-22T11:33:26.297Z,99422.00
2018-08-22T11:35:54.718Z,99423.00
2018-08-22T11:38:24.614Z,99423.00
2018-08-22T11:40:54.472Z,99427.00
2018-08-22T11:43:24.493Z,99422.00
2018-08-22T11:45:54.389Z,99425.00
2018-08-22T11:48:24.226Z,99417.00
2018-08-22T11:50:54.062Z,99412.00
2018-08-22T11:53:24.630Z,99412.00
2018-08-22T11:55:54.493Z,99413.00
2018-08-22T11:58:24.326Z,99411.00
2018-08-22T12:00:54.372Z,99409.00
2018-08-22T12:03:25.670Z,99411.00
2018-08-22T12:05:55.514Z,99409.00
2018-08-22T12:08:25.666Z,99405.00
2018-08-22T12:10:55.543Z,99401.00
2018-08-22T12:13:25.377Z,99397.00
2018-08-22T12:15:55.322Z,99393.00
2018-08-22T12:18:25.166Z,99390.00
2018-08-22T12:20:55.106Z,99389.00
2018-08-22T12:23:25.006Z,99388.00
2018-08-22T12:25:54.801Z,99385.00
2018-08-22T12:28:24.710Z,99380.00
2018-08-22T12:30:54.663Z,99375.00
2018-08-22T12:33:24.497Z,99376.00
2018-08-22T12:35:54.346Z,99378.00
2018-08-22T12:38:24.206Z,99376.00
2018-08-22T12:40:54.062Z,99367.00
2018-08-22T12:43:23.907Z,99370.00
2018-08-22T12:45:53.753Z,99368.00
2018-08-22T12:48:23.832Z,99366.00
2018-08-22T12:50:53.678Z,99360.00
2018-08-22T12:53:23.555Z,99358.00
2018-08-22T12:55:53.403Z,99361.00
2018-08-22T12:58:23.359Z,99359.00
2018-08-22T13:00:53.283Z,99361.00
2018-08-22T13:03:23.197Z,99352.00
2018-08-22T13:05:53.134Z,99350.00
2018-08-22T13:08:22.984Z,99348.00
2018-08-22T13:10:52.837Z,99344.00
2018-08-22T13:13:22.687Z,99346.00
2018-08-22T13:15:52.543Z,99345.00
2018-08-22T13:18:22.383Z,99349.00
2018-08-22T13:20:52.271Z,99348.00
2018-08-22T13:23:22.110Z,99340.00
2018-08-22T13:25:52.002Z,99334.00
2018-08-22T13:28:21.839Z,99336.00
2018-08-22T13:30:51.731Z,99339.00
2018-08-22T13:33:21.646Z,99335.00
2018-08-22T13:35:51.506Z,99331.00
2018-08-22T13:38:21.458Z,99332.00
2018-08-22T13:40:51.318Z,99327.00
2018-08-22T13:43:21.150Z,99317.00
2018-08-22T13:45:51.011Z,99322.00
2018-08-22T13:48:20.846Z,99316.00
2018-08-22T13:50:50.737Z,99311.00
2018-08-22T13:53:20.563Z,99313.00
2018-08-22T13:55:50.464Z,99315.00
2018-08-22T13:58:20.315Z,99315.00
2018-08-22T14:00:50.261Z,99313.00
2018-08-22T14:03:20.103Z,99309.00
2018-08-22T14:05:49.955Z,99305.00
2018-08-22T14:08:19.815Z,99310.00
2018-08-22T14:10:49.663Z,99304.00
2018-08-22T14:13:19.526Z,99304.00
2018-08-22T14:15:49.375Z,99295.00
2018-08-22T14:18:19.254Z,99294.00
2018-08-22T14:20:49.106Z,99293.00
2018-08-22T14:23:19.064Z,99288.00
2018-08-22T14:25:48.919Z,99288.00
2018-08-22T14:28:18.795Z,99286.00
2018-08-22T14:30:48.639Z,99280.00
2018-08-22T14:33:18.572Z,99279.00
2018-08-22T14:35:48.406Z,99280.00
2018-08-22T14:38:18.283Z,99275.00
2018-08-22T14:40:48.128Z,99277.00
2018-08-22T14:43:18.006Z,99269.00
2018-08-22T14:45:47.887Z,99268.00
2018-08-22T14:48:17.761Z,99270.00
2018-08-22T14:50:47.607Z,99269.00
2018-08-22T14:53:17.462Z,99264.00
2018-08-22T14:55:47.365Z,99265.00
2018-08-22T14:58:17.178Z,99264.00
2018-08-22T15:00:47.022Z,99265.00
2018-08-22T15:03:17.076Z,99253.00
2018-08-22T15:05:46.825Z,99250.00
2018-08-22T15:08:16.683Z,99246.00
2018-08-22T15:10:47.147Z,99245.00
2018-08-22T15:13:17.079Z,99243.00
2018-08-22T15:15:46.935Z,99243.00
2018-08-22T15:18:16.923Z,99243.00
2018-08-22T15:20:46.770Z,99239.00
2018-08-22T15:23:16.627Z,99235.00
2018-08-22T15:25:46.478Z,99236.00
2018-08-22T15:28:16.349Z,99235.00
2018-08-22T15:30:46.199Z,99235.00
2018-08-22T15:33:16.046Z,99233.00
2018-08-22T15:35:45.930Z,99237.00
2018-08-22T15:38:15.782Z,99235.00
2018-08-22T15:40:45.734Z,99232.00
2018-08-22T15:43:15.552Z,99236.00
2018-08-22T15:45:45.397Z,99235.00
2018-08-22T15:48:15.307Z,99230.00
2018-08-22T15:50:45.387Z,99229.00
2018-08-22T15:53:15.332Z,99232.00
2018-08-22T15:55:45.209Z,99227.00
2018-08-22T15:58:15.067Z,99224.00
2018-08-22T16:00:47.220Z,99225.00
2018-08-22T16:03:17.079Z,99219.00
2018-08-22T16:05:47.803Z,99216.00
2018-08-22T16:08:19.518Z,99213.00
2018-08-22T16:10:49.401Z,99217.00
2018-08-22T16:13:24.650Z,99212.00
2018-08-22T16:15:55.745Z,99210.00
2018-08-22T16:18:25.581Z,99208.00
2018-08-22T16:20:56.663Z,99202.00
2018-08-22T16:23:30.910Z,99202.00
2018-08-22T16:26:01.779Z,99200.00
2018-08-22T16:28:50.475Z,99203.00
2018-08-22T16:31:21.106Z,99202.00
2018-08-22T16:33:57.288Z,99203.00
2018-08-22T16:36:29.822Z,99201.00
2018-08-22T16:39:00.664Z,99203.00
2018-08-22T16:41:30.516Z,99200.00
2018-08-22T16:44:00.375Z,99197.00
2018-08-22T16:46:30.238Z,99193.00
2018-08-22T16:49:00.082Z,99200.00
2018-08-22T16:51:29.940Z,99197.00
2018-08-22T16:54:03.918Z,99194.00
2018-08-22T16:56:34.550Z,99199.00
2018-08-22T16:59:09.319Z,99198.00
2018-08-22T17:01:45.563Z,99195.00
2018-08-22T17:04:16.092Z,99195.00
2018-08-22T17:06:46.402Z,99196.00
2018-08-22T17:09:16.283Z,99196.00
2018-08-22T17:11:52.815Z,99198.00
2018-08-22T17:14:22.699Z,99199.00
2018-08-22T17:16:52.539Z,99202.00
2018-08-22T17:19:22.391Z,99196.00
2018-08-22T17:21:52.237Z,99198.00
2018-08-22T17:24:22.090Z,99197.00
2018-08-22T17:26:51.933Z,99198.00
2018-08-22T17:29:21.883Z,99196.00
2018-08-22T17:31:57.194Z,99199.00
2018-08-22T17:34:27.065Z,99193.00
2018-08-22T17:37:08.237Z,99190.00
2018-08-22T17:39:38.082Z,99192.00
2018-08-22T17:42:08.146Z,99192.00
2018-08-22T17:44:37.986Z,99198.00
2018-08-22T17:47:07.854Z,99197.00
2018-08-22T17:49:37.787Z,99196.00
2018-08-22T17:52:08.896Z,99202.00
2018-08-22T17:54:38.744Z,99197.00
2018-08-22T17:57:20.467Z,99200.00
2018-08-22T17:59:51.786Z,99198.00
2018-08-22T18:02:21.640Z,99204.00
2018-08-22T18:04:56.126Z,99205.00
2018-08-22T18:07:34.551Z,99205.00
2018-08-22T18:10:04.443Z,99204.00
2018-08-22T18:12:34.337Z,99208.00
2018-08-22T18:15:04.703Z,99211.00
2018-08-22T18:17:34.587Z,99215.00
2018-08-22T18:20:05.282Z,99214.00
2018-08-22T18:22:36.716Z,99210.00
2018-08-22T18:25:07.091Z,99212.00
2018-08-22T18:27:37.573Z,99211.00
2018-08-22T18:30:11.622Z,99217.00
2018-08-22T18:32:41.459Z,99222.00
2018-08-22T18:35:12.001Z,99225.00
2018-08-22T18:37:42.398Z,99223.00
2018-08-22T18:40:33.927Z,99224.00
2018-08-22T18:43:05.178Z,99228.00
2018-08-22T18:45:35.131Z,99230.00
2018-08-22T18:48:06.277Z,99231.00
2018-08-22T18:50:36.131Z,99231.00
2018-08-22T18:53:07.951Z,99235.00
2018-08-22T18:55:38.257Z,99241.00
2018-08-22T18:58:09.697Z,99244.00
2018-08-22T19:00:40.555Z,99243.00
2018-08-22T19:03:10.440Z,99246.00
2018-08-22T19:05:40.368Z,99248.00
2018-08-22T19:08:12.170Z,99249.00
2018-08-22T19:10:43.405Z,99255.00
2018-08-22T19:13:16.558Z,99253.00
2018-08-22T19:15:52.857Z,99252.00
2018-08-22T19:18:22.864Z,99252.00
2018-08-22T19:20:56.116Z,99257.00
2018-08-22T19:23:26.079Z,99260.00
2018-08-22T19:25:56.719Z,99261.00
2018-08-22T19:28:26.603Z,99269.00
2018-08-22T19:30:56.459Z,99265.00
2018-08-22T19:33:27.746Z,99265.00
2018-08-22T19:35:57.811Z,99264.00
2018-08-22T19:38:28.567Z,99269.00
2018-08-22T19:41:02.898Z,99271.00
2018-08-22T19:43:32.763Z,99274.00
2018-08-22T19:47:05.892Z,99269.00
2018-08-22T19:49:35.732Z,99271.00
2018-08-22T19:52:05.606Z,99272.00
2018-08-22T19:54:35.560Z,99265.00
2018-08-22T19:57:05.406Z,99270.00
2018-08-22T19:59:35.283Z,99270.00
2018-08-22T20:02:05.160Z,99271.00
2018-08-22T20:04:38.011Z,99275.00
2018-08-22T20:07:07.849Z,99274.00
2018-08-22T20:09:42.336Z,99272.00
2018-08-22T20:12:12.986Z,99276.00
2018-08-22T20:14:51.446Z,99271.00
2018-08-22T20:17:26.656Z,99273.00
2018-08-22T20:19:56.519Z,99279.00
2018-08-22T20:22:40.818Z,99278.00
2018-08-22T20:25:12.586Z,99279.00
2018-08-22T20:27:42.519Z,99281.00
2018-08-22T20:30:15.387Z,99283.00
2018-08-22T20:32:56.787Z,99280.00
2018-08-22T20:35:36.306Z,99283.00
2018-08-22T20:38:07.806Z,99281.00
2018-08-22T20:40:37.708Z,99280.00
2018-08-22T20:43:30.199Z,99278.00
2018-08-22T20:46:00.095Z,99278.00
2018-08-22T20:48:29.995Z,99277.00
2018-08-22T20:50:59.886Z,99284.00
2018-08-22T20:53:29.791Z,99287.00
2018-08-22T20:55:59.698Z,99288.00
2018-08-22T20:58:31.510Z,99281.00
2018-08-22T21:01:01.649Z,99283.00
2018-08-22T21:03:31.555Z,99284.00
2018-08-22T21:06:01.438Z,99283.00
2018-08-22T21:08:31.364Z,99281.00
2018-08-22T21:11:01.260Z,99280.00
2018-08-22T21:13:31.195Z,99285.00
2018-08-22T21:16:01.099Z,99281.00
2018-08-22T21:18:31.049Z,99283.00
2018-08-22T21:21:00.943Z,99280.00
2018-08-22T21:23:30.859Z,99281.00
2018-08-22T21:26:00.760Z,99281.00
2018-08-22T21:28:35.098Z,99278.00
2018-08-22T21:31:05.005Z,99274.00
2018-08-22T21:33:34.930Z,99279.00
2018-08-22T21:36:04.859Z,99275.00
2018-08-22T21:38:34.771Z,99280.00
2018-08-22T21:41:04.670Z,99280.00
2018-08-22T21:43:34.582Z,99285.00
2018-08-22T21:46:04.469Z,99284.00
2018-08-22T21:48:34.383Z,99282.00
2018-08-22T21:51:04.293Z,99279.00
2018-08-22T21:53:34.210Z,99280.00
2018-08-22T21:56:04.118Z,99282.00
2018-08-22T21:58:34.030Z,99279.00
2018-08-22T22:01:05.402Z,99281.00
2018-08-22T22:03:35.302Z,99280.00
2018-08-22T22:06:05.646Z,99278.00
2018-08-22T22:08:35.571Z,99276.00
2018-08-22T22:11:06.866Z,99283.00
2018-08-22T22:13:36.766Z,99281.00
2018-08-22T22:16:06.652Z,99284.00
2018-08-22T22:18:36.550Z,99286.00
2018-08-22T22:21:12.283Z,99282.00
2018-08-22T22:23:44.878Z,99279.00
2018-08-22T22:26:15.931Z,99280.00
2018-08-22T22:28:45.851Z,99285.00
2018-08-22T22:31:17.721Z,99285.00
2018-08-22T22:33:53.715Z,99282.00
2018-08-22T22:36:23.585Z,99282.00
2018-08-22T22:38:53.469Z,99283.00
2018-08-22T22:41:27.146Z,99289.00
2018-08-22T22:43:57.030Z,99289.00
2018-08-22T22:46:26.910Z,99288.00
2018-08-22T22:48:56.795Z,99293.00
2018-08-22T22:51:26.683Z,99289.00
2018-08-22T22:53:56.581Z,99288.00
2018-08-22T22:56:26.457Z,99292.00
2018-08-22T22:58:56.382Z,99290.00
2018-08-22T23:01:26.353Z,99286.00
2018-08-22T23:03:56.290Z,99287.00
2018-08-22T23:06:26.130Z,99282.00
2018-08-22T23:08:56.085Z,99286.00
2018-08-22T23:11:25.966Z,99284.00
2018-08-22T23:13:55.903Z,99282.00
2018-08-22T23:16:31.294Z,99282.00
2018-08-22T23:19:01.168Z,99284.00
2018-08-22T23:21:31.063Z,99276.00
2018-08-22T23:24:06.010Z,99282.00
2018-08-22T23:26:35.901Z,99280.00
2018-08-22T23:29:05.781Z,99281.00
2018-08-22T23:31:35.659Z,99278.00
2018-08-22T23:34:05.561Z,99280.00
2018-08-22T23:36:35.439Z,99274.00
2018-08-22T23:39:07.022Z,99274.00
2018-08-22T23:41:36.911Z,99275.00
2018-08-22T23:44:06.785Z,99275.00
2018-08-22T23:46:36.679Z,99276.00
2018-08-22T23:49:06.570Z,99275.00
2018-08-22T23:51:36.457Z,99275.00
2018-08-22T23:54:06.389Z,99266.00
2018-08-22T23:56:36.266Z,99266.00
2018-08-22T23:59:06.139Z,99270.00
